createdAt,value
2019-02-05T00:01:35.004Z,9.97
2019-02-05T00:04:07.114Z,9.73
2019-02-05T00:06:41.134Z,8.97
2019-02-05T00:09:14.076Z,11.13
2019-02-05T00:11:50.517Z,9.40
2019-02-05T00:14:20.766Z,10.70
2019-02-05T00:16:53.195Z,11.80
2019-02-05T00:19:25.015Z,11.03
2019-02-05T00:21:54.830Z,8.43
2019-02-05T00:24:28.456Z,9.23
2019-02-05T00:26:59.134Z,8.87
2019-02-05T00:29:27.907Z,9.13
2019-02-05T00:32:06.782Z,8.33
2019-02-05T00:34:32.824Z,8.77
2019-02-05T00:37:03.542Z,8.63
2019-02-05T00:39:35.886Z,8.67
2019-02-05T00:42:08.741Z,8.83
2019-02-05T00:44:38.363Z,10.70
2019-02-05T00:47:12.615Z,9.67
2019-02-05T00:49:41.341Z,9.30
2019-02-05T00:52:11.166Z,13.13
2019-02-05T00:54:39.627Z,17.03
2019-02-05T00:57:26.046Z,15.53
2019-02-05T00:59:56.660Z,15.20
2019-02-05T01:02:31.626Z,14.03
2019-02-05T01:05:05.917Z,14.87
2019-02-05T01:07:48.994Z,14.70
2019-02-05T01:10:22.444Z,14.60
2019-02-05T01:12:55.761Z,15.97
2019-02-05T01:15:28.672Z,14.23
2019-02-05T01:18:11.498Z,13.60
2019-02-05T01:20:44.995Z,12.40
2019-02-05T01:23:20.174Z,15.03
2019-02-05T01:25:50.316Z,10.93
2019-02-05T01:28:30.647Z,10.67
2019-02-05T01:31:00.169Z,12.27
2019-02-05T01:33:30.803Z,12.13
2019-02-05T01:36:00.629Z,10.53
2019-02-05T01:38:36.457Z,10.47
2019-02-05T01:41:12.006Z,9.57
2019-02-05T01:43:45.529Z,10.60
2019-02-05T01:46:22.631Z,13.03
2019-02-05T01:49:19.169Z,11.37
2019-02-05T01:51:50.450Z,11.07
2019-02-05T01:54:27.071Z,9.93
2019-02-05T01:56:55.725Z,10.93
2019-02-05T01:59:32.305Z,9.83
2019-02-05T02:02:11.051Z,10.30
2019-02-05T02:04:39.533Z,10.60
2019-02-05T02:07:10.625Z,11.87
2019-02-05T02:09:49.210Z,9.77
2019-02-05T02:12:21.001Z,9.77
2019-02-05T02:14:53.669Z,9.43
2019-02-05T02:17:29.954Z,13.13
2019-02-05T02:20:04.249Z,10.80
2019-02-05T02:22:32.537Z,8.67
2019-02-05T02:25:01.038Z,9.70
2019-02-05T02:27:32.814Z,9.97
2019-02-05T02:30:02.379Z,8.07
2019-02-05T02:32:40.603Z,11.80
2019-02-05T02:35:11.818Z,8.43
2019-02-05T02:37:43.130Z,10.37
2019-02-05T02:40:15.186Z,11.00
2019-02-05T02:42:48.947Z,9.30
2019-02-05T02:45:17.275Z,9.83
2019-02-05T02:47:54.320Z,11.53
2019-02-05T02:50:25.716Z,12.93
2019-02-05T02:52:58.763Z,11.20
2019-02-05T02:55:37.931Z,11.17
2019-02-05T02:58:09.435Z,14.43
2019-02-05T03:00:37.545Z,9.77
2019-02-05T03:03:13.073Z,9.43
2019-02-05T03:05:44.387Z,13.70
2019-02-05T03:08:13.020Z,8.33
2019-02-05T03:10:42.325Z,9.50
2019-02-05T03:13:13.347Z,9.87
2019-02-05T03:16:05.286Z,10.33
2019-02-05T03:18:42.634Z,9.80
2019-02-05T03:21:17.213Z,10.70
2019-02-05T03:23:47.388Z,9.73
2019-02-05T03:26:22.025Z,10.87
2019-02-05T03:28:54.110Z,9.13
2019-02-05T03:31:25.427Z,11.30
2019-02-05T03:33:59.658Z,10.87
2019-02-05T03:36:31.218Z,13.20
2019-02-05T03:39:13.203Z,11.70
2019-02-05T03:41:42.996Z,11.83
2019-02-05T03:44:36.040Z,12.90
2019-02-05T03:47:08.565Z,10.63
2019-02-05T03:49:39.204Z,10.30
2019-02-05T03:52:32.449Z,9.17
2019-02-05T03:55:32.371Z,11.80
2019-02-05T03:58:57.786Z,11.70
2019-02-05T04:01:53.617Z,11.33
2019-02-05T04:05:15.749Z,9.27
2019-02-05T04:08:25.807Z,7.33
2019-02-05T04:11:41.837Z,9.67
2019-02-05T04:14:49.816Z,9.23
2019-02-05T04:17:55.020Z,8.97
2019-02-05T04:21:00.586Z,8.43
2019-02-05T04:24:24.341Z,7.43
2019-02-05T04:27:14.172Z,8.97
2019-02-05T04:30:13.770Z,9.63
2019-02-05T04:33:43.920Z,8.53
2019-02-05T04:36:44.644Z,10.00
2019-02-05T04:39:47.781Z,6.80
2019-02-05T04:43:06.914Z,9.23
2019-02-05T04:46:20.388Z,8.17
2019-02-05T04:49:27.455Z,10.20
2019-02-05T04:52:44.682Z,9.30
2019-02-05T04:55:40.201Z,8.83
2019-02-05T04:58:37.426Z,7.30
2019-02-05T05:01:34.656Z,7.97
2019-02-05T05:04:33.353Z,8.03
2019-02-05T05:07:58.054Z,9.57
2019-02-05T05:10:34.719Z,8.83
2019-02-05T05:13:02.972Z,8.27
2019-02-05T05:15:39.702Z,8.90
2019-02-05T05:18:08.559Z,11.00
2019-02-05T05:20:40.919Z,8.43
2019-02-05T05:23:11.442Z,10.13
2019-02-05T05:25:47.249Z,7.80
2019-02-05T05:28:19.405Z,8.43
2019-02-05T05:30:58.066Z,7.97
2019-02-05T05:33:26.917Z,9.60
2019-02-05T05:35:59.414Z,8.17
2019-02-05T05:38:29.842Z,9.97
2019-02-05T05:41:00.549Z,9.23
2019-02-05T05:43:30.402Z,9.10
2019-02-05T05:46:02.622Z,8.43
2019-02-05T05:48:32.208Z,9.43
2019-02-05T05:51:00.868Z,8.67
2019-02-05T05:53:32.101Z,9.70
2019-02-05T05:56:00.681Z,9.47
2019-02-05T05:58:30.282Z,8.20
2019-02-05T06:00:59.922Z,9.03
2019-02-05T06:03:31.002Z,9.30
2019-02-05T06:06:00.375Z,8.60
2019-02-05T06:08:34.319Z,8.80
2019-02-05T06:11:12.708Z,11.83
2019-02-05T06:13:51.968Z,8.97
2019-02-05T06:16:20.102Z,9.10
2019-02-05T06:18:48.250Z,7.90
2019-02-05T06:21:16.934Z,9.33
2019-02-05T06:23:45.223Z,7.53
2019-02-05T06:26:13.462Z,8.10
2019-02-05T06:28:42.171Z,9.10
2019-02-05T06:31:10.258Z,9.23
2019-02-05T06:33:38.502Z,8.40
2019-02-05T06:36:06.742Z,8.33
2019-02-05T06:38:34.987Z,12.97
2019-02-05T06:41:03.290Z,8.80
2019-02-05T06:43:31.434Z,7.43
2019-02-05T06:45:59.833Z,9.70
2019-02-05T06:48:28.181Z,9.80
2019-02-05T06:50:56.899Z,7.40
2019-02-05T06:53:25.787Z,10.43
2019-02-05T06:55:54.373Z,7.77
2019-02-05T06:58:22.621Z,7.87
2019-02-05T07:00:50.715Z,8.70
2019-02-05T07:03:19.258Z,8.13
2019-02-05T07:05:47.355Z,11.17
2019-02-05T07:08:15.493Z,9.13
2019-02-05T07:10:43.806Z,10.30
2019-02-05T07:13:11.954Z,10.70
2019-02-05T07:15:40.047Z,8.80
2019-02-05T07:18:08.406Z,8.67
2019-02-05T07:20:37.237Z,10.20
2019-02-05T07:23:05.686Z,8.87
2019-02-05T07:25:34.091Z,9.07
2019-02-05T07:28:02.218Z,9.10
2019-02-05T07:30:30.468Z,22.23
2019-02-05T07:32:58.886Z,12.30
2019-02-05T07:35:27.073Z,16.60
2019-02-05T07:37:55.861Z,20.30
2019-02-05T07:40:24.201Z,11.07
2019-02-05T07:42:52.394Z,5.63
2019-02-05T07:45:21.070Z,6.67
2019-02-05T07:47:49.427Z,8.00
2019-02-05T07:50:20.346Z,8.83
2019-02-05T07:52:48.637Z,7.67
2019-02-05T07:55:16.989Z,7.90
2019-02-05T07:57:45.778Z,8.17
2019-02-05T08:00:19.296Z,9.23
2019-02-05T08:02:47.686Z,7.73
2019-02-05T08:05:18.194Z,7.83
2019-02-05T08:07:46.890Z,6.63
2019-02-05T08:10:17.730Z,8.77
2019-02-05T08:12:46.589Z,6.73
2019-02-05T08:15:16.741Z,10.97
2019-02-05T08:17:45.129Z,12.40
2019-02-05T08:20:13.633Z,13.07
2019-02-05T08:22:42.223Z,15.37
2019-02-05T08:25:11.962Z,19.70
2019-02-05T08:27:40.249Z,14.27
2019-02-05T08:30:17.418Z,9.70
2019-02-05T08:32:45.850Z,11.70
2019-02-05T08:35:14.814Z,11.60
2019-02-05T08:37:43.058Z,10.23
2019-02-05T08:40:14.190Z,10.00
2019-02-05T08:42:42.539Z,9.30
2019-02-05T08:45:14.320Z,11.37
2019-02-05T08:47:42.865Z,11.93
2019-02-05T08:50:15.116Z,10.47
2019-02-05T08:52:47.954Z,11.17
2019-02-05T08:55:20.922Z,12.63
2019-02-05T08:57:49.766Z,12.00
2019-02-05T09:00:26.097Z,16.13
2019-02-05T09:02:54.478Z,14.30
2019-02-05T09:05:22.888Z,13.20
2019-02-05T09:07:51.098Z,11.10
2019-02-05T09:10:31.162Z,9.93
2019-02-05T09:13:02.446Z,10.20
2019-02-05T09:15:31.267Z,9.20
2019-02-05T09:17:59.874Z,8.90
2019-02-05T09:20:28.193Z,8.40
2019-02-05T09:22:59.098Z,7.90
2019-02-05T09:25:27.421Z,6.97
2019-02-05T09:27:55.810Z,8.67
2019-02-05T09:30:28.567Z,7.60
2019-02-05T09:32:58.282Z,5.50
2019-02-05T09:35:26.378Z,5.80
2019-02-05T09:37:57.575Z,4.50
2019-02-05T09:40:27.253Z,3.83
2019-02-05T09:42:55.662Z,3.63
2019-02-05T09:45:25.232Z,4.87
2019-02-05T09:47:57.489Z,5.77
2019-02-05T09:50:25.887Z,4.80
2019-02-05T09:52:54.191Z,5.13
2019-02-05T09:55:22.663Z,3.53
2019-02-05T09:57:51.323Z,3.80
2019-02-05T10:00:25.830Z,3.70
2019-02-05T10:02:55.558Z,3.67
2019-02-05T10:05:24.205Z,4.53
2019-02-05T10:07:52.634Z,3.20
2019-02-05T10:10:21.164Z,3.37
2019-02-05T10:12:49.513Z,3.67
2019-02-05T10:15:22.702Z,3.33
2019-02-05T10:17:50.918Z,4.37
2019-02-05T10:20:19.789Z,4.20
2019-02-05T10:22:49.421Z,3.83
2019-02-05T10:25:17.952Z,2.67
2019-02-05T10:27:46.164Z,4.80
2019-02-05T10:30:20.488Z,2.53
2019-02-05T10:32:48.791Z,3.20
2019-02-05T10:35:19.153Z,3.30
2019-02-05T10:37:48.303Z,4.47
2019-02-05T10:40:16.727Z,3.90
2019-02-05T10:42:45.041Z,4.40
2019-02-05T10:45:15.011Z,4.10
2019-02-05T10:47:43.318Z,3.50
2019-02-05T10:50:13.751Z,2.87
2019-02-05T10:52:43.579Z,4.37
2019-02-05T10:55:12.547Z,4.00
2019-02-05T10:57:40.899Z,2.90
2019-02-05T11:00:12.885Z,1.93
2019-02-05T11:02:41.203Z,4.20
2019-02-05T11:05:12.548Z,3.60
2019-02-05T11:07:41.171Z,2.13
2019-02-05T11:10:09.918Z,1.50
2019-02-05T11:12:38.928Z,1.43
2019-02-05T11:15:09.753Z,1.20
2019-02-05T11:17:38.016Z,1.63
2019-02-05T11:20:10.215Z,1.43
2019-02-05T11:22:38.770Z,3.30
2019-02-05T11:25:10.338Z,1.33
2019-02-05T11:27:39.026Z,1.60
2019-02-05T11:30:19.949Z,2.23
2019-02-05T11:32:41.674Z,1.67
2019-02-05T11:35:09.983Z,1.10
2019-02-05T11:37:41.407Z,1.30
2019-02-05T11:40:12.678Z,1.70
2019-02-05T11:42:40.887Z,1.73
2019-02-05T11:45:13.330Z,1.87
2019-02-05T11:47:44.386Z,1.40
2019-02-05T11:50:13.734Z,1.20
2019-02-05T11:52:42.056Z,2.43
2019-02-05T11:55:13.099Z,2.00
2019-02-05T11:57:41.584Z,2.03
2019-02-05T12:00:15.786Z,2.70
2019-02-05T12:02:44.546Z,1.10
2019-02-05T12:05:13.111Z,1.53
2019-02-05T12:07:41.478Z,3.77
2019-02-05T12:10:11.035Z,1.23
2019-02-05T12:12:39.255Z,2.13
2019-02-05T12:15:08.843Z,1.70
2019-02-05T12:17:37.378Z,1.53
2019-02-05T12:20:08.383Z,1.27
2019-02-05T12:22:37.163Z,1.13
2019-02-05T12:25:07.954Z,1.40
2019-02-05T12:27:36.925Z,1.73
2019-02-05T12:30:08.767Z,1.10
2019-02-05T12:32:37.170Z,2.10
2019-02-05T12:35:05.653Z,1.57
2019-02-05T12:37:33.911Z,1.20
2019-02-05T12:40:02.636Z,1.10
2019-02-05T12:42:32.309Z,1.13
2019-02-05T12:45:13.074Z,1.00
2019-02-05T12:47:43.335Z,1.63
2019-02-05T12:50:16.325Z,1.23
2019-02-05T12:52:44.670Z,1.17
2019-02-05T12:55:15.855Z,1.07
2019-02-05T12:57:46.770Z,2.43
2019-02-05T13:00:20.647Z,0.90
2019-02-05T13:02:49.128Z,1.87
2019-02-05T13:05:17.640Z,1.43
2019-02-05T13:07:45.811Z,2.23
2019-02-05T13:10:16.020Z,1.80
2019-02-05T13:12:44.244Z,1.47
2019-02-05T13:15:12.833Z,0.67
2019-02-05T13:17:41.470Z,0.43
2019-02-05T13:20:15.942Z,2.97
2019-02-05T13:22:44.300Z,0.70
2019-02-05T13:25:18.727Z,0.70
2019-02-05T13:27:47.840Z,1.20
2019-02-05T13:30:18.959Z,0.63
2019-02-05T13:32:47.179Z,0.77
2019-02-05T13:35:15.596Z,1.50
2019-02-05T13:37:43.959Z,0.60
2019-02-05T13:40:17.309Z,0.93
2019-02-05T13:42:45.704Z,1.00
2019-02-05T13:45:15.141Z,0.70
2019-02-05T13:47:43.442Z,0.70
2019-02-05T13:50:16.821Z,0.80
2019-02-05T13:52:45.558Z,0.87
2019-02-05T13:55:17.403Z,0.90
2019-02-05T13:57:45.731Z,0.80
2019-02-05T14:00:17.812Z,1.70
2019-02-05T14:02:46.176Z,1.10
2019-02-05T14:05:14.893Z,1.00
2019-02-05T14:07:43.478Z,1.63
2019-02-05T14:10:15.366Z,1.20
2019-02-05T14:12:43.786Z,1.20
2019-02-05T14:15:12.327Z,0.80
2019-02-05T14:17:40.639Z,2.50
2019-02-05T14:20:09.874Z,1.03
2019-02-05T14:22:38.773Z,0.77
2019-02-05T14:25:09.233Z,0.67
2019-02-05T14:27:37.417Z,1.33
2019-02-05T14:30:08.446Z,0.63
2019-02-05T14:32:36.681Z,1.10
2019-02-05T14:35:06.237Z,1.00
2019-02-05T14:37:34.443Z,1.37
2019-02-05T14:40:06.086Z,0.90
2019-02-05T14:42:36.021Z,1.57
2019-02-05T14:45:05.514Z,1.23
2019-02-05T14:47:33.853Z,2.20
2019-02-05T14:50:02.090Z,0.70
2019-02-05T14:52:30.394Z,1.10
2019-02-05T14:55:04.620Z,0.90
2019-02-05T14:57:31.189Z,1.00
2019-02-05T14:59:59.299Z,1.10
2019-02-05T15:02:27.862Z,1.20
2019-02-05T15:04:56.119Z,1.97
2019-02-05T15:07:24.443Z,0.43
2019-02-05T15:09:55.451Z,0.90
2019-02-05T15:12:23.814Z,0.70
2019-02-05T15:14:51.958Z,1.13
2019-02-05T15:17:20.075Z,0.63
2019-02-05T15:19:48.812Z,1.03
2019-02-05T15:22:17.282Z,1.00
2019-02-05T15:24:45.794Z,0.50
2019-02-05T15:27:14.088Z,0.60
2019-02-05T15:29:45.130Z,0.90
2019-02-05T15:32:32.118Z,1.10
2019-02-05T15:35:00.631Z,0.97
2019-02-05T15:37:28.877Z,0.53
2019-02-05T15:39:57.467Z,0.60
2019-02-05T15:42:26.087Z,0.80
2019-02-05T15:44:54.346Z,0.70
2019-02-05T15:47:23.967Z,0.80
2019-02-05T15:49:52.226Z,1.10
2019-02-05T15:52:20.359Z,1.00
2019-02-05T15:54:48.601Z,1.50
2019-02-05T15:57:16.909Z,0.90
2019-02-05T15:59:45.103Z,0.60
2019-02-05T16:02:16.482Z,1.70
2019-02-05T16:04:47.230Z,0.80
2019-02-05T16:07:15.347Z,0.87
2019-02-05T16:09:43.629Z,1.77
2019-02-05T16:12:11.930Z,1.50
2019-02-05T16:14:40.039Z,1.20
2019-02-05T16:17:11.207Z,1.90
2019-02-05T16:19:40.933Z,3.87
2019-02-05T16:22:09.910Z,2.83
2019-02-05T16:24:38.566Z,2.50
2019-02-05T16:27:06.798Z,2.27
2019-02-05T16:29:39.082Z,2.87
2019-02-05T16:32:17.315Z,3.10
2019-02-05T16:34:41.026Z,4.33
2019-02-05T16:37:09.726Z,3.70
2019-02-05T16:39:40.918Z,4.53
2019-02-05T16:42:09.494Z,3.93
2019-02-05T16:44:43.927Z,2.30
2019-02-05T16:47:13.729Z,4.07
2019-02-05T16:49:53.610Z,7.20
2019-02-05T16:52:24.737Z,3.67
2019-02-05T16:54:56.665Z,3.60
2019-02-05T16:57:24.969Z,3.93
2019-02-05T16:59:56.030Z,10.83
2019-02-05T17:02:31.357Z,9.87
2019-02-05T17:05:03.485Z,8.43
2019-02-05T17:07:31.745Z,6.53
2019-02-05T17:09:59.906Z,5.50
2019-02-05T17:12:28.397Z,5.10
2019-02-05T17:15:19.159Z,6.97
2019-02-05T17:17:49.516Z,5.57
2019-02-05T17:20:25.442Z,8.40
2019-02-05T17:22:54.130Z,7.77
2019-02-05T17:25:25.647Z,6.47
2019-02-05T17:27:54.718Z,13.20
2019-02-05T17:30:26.659Z,20.43
2019-02-05T17:32:58.160Z,9.03
2019-02-05T17:35:29.474Z,6.83
2019-02-05T17:37:58.814Z,6.93
2019-02-05T17:40:27.758Z,7.57
2019-02-05T17:42:56.074Z,6.30
2019-02-05T17:45:28.696Z,7.53
2019-02-05T17:48:09.158Z,7.60
2019-02-05T17:50:47.354Z,6.97
2019-02-05T17:53:16.865Z,5.80
2019-02-05T17:55:54.762Z,6.43
2019-02-05T17:58:32.010Z,7.13
2019-02-05T18:01:11.238Z,9.97
2019-02-05T18:03:48.218Z,7.17
2019-02-05T18:06:16.498Z,10.93
2019-02-05T18:09:17.619Z,7.23
2019-02-05T18:11:49.870Z,8.13
2019-02-05T18:14:23.625Z,8.03
2019-02-05T18:16:56.656Z,9.30
2019-02-05T18:19:29.931Z,8.60
2019-02-05T18:21:58.103Z,11.23
2019-02-05T18:24:29.351Z,8.37
2019-02-05T18:27:00.859Z,9.10
2019-02-05T18:29:37.343Z,6.33
2019-02-05T18:32:05.983Z,6.43
2019-02-05T18:34:35.200Z,7.70
2019-02-05T18:37:06.982Z,6.13
2019-02-05T18:39:43.570Z,6.33
2019-02-05T18:42:14.715Z,6.93
2019-02-05T18:44:48.329Z,6.23
2019-02-05T18:47:17.626Z,6.17
2019-02-05T18:49:47.206Z,5.70
2019-02-05T18:52:16.458Z,9.23
2019-02-05T18:54:47.722Z,11.83
2019-02-05T18:57:15.841Z,6.10
2019-02-05T18:59:45.225Z,8.00
2019-02-05T19:02:13.394Z,8.23
2019-02-05T19:04:41.664Z,8.07
2019-02-05T19:07:09.866Z,11.33
2019-02-05T19:09:38.026Z,5.73
2019-02-05T19:12:06.250Z,6.07
2019-02-05T19:14:35.183Z,7.13
2019-02-05T19:17:05.212Z,7.47
2019-02-05T19:19:34.322Z,7.17
2019-02-05T19:22:03.003Z,8.50
2019-02-05T19:24:59.804Z,6.53
2019-02-05T19:27:32.180Z,7.83
2019-02-05T19:30:03.415Z,9.13
2019-02-05T19:32:33.026Z,13.07
2019-02-05T19:35:01.128Z,9.67
2019-02-05T19:37:29.511Z,9.93
2019-02-05T19:39:57.665Z,9.27
2019-02-05T19:42:25.922Z,10.93
2019-02-05T19:45:11.239Z,9.87
2019-02-05T19:47:39.559Z,7.00
2019-02-05T19:50:07.933Z,8.67
2019-02-05T19:52:37.027Z,5.70
2019-02-05T19:55:05.574Z,6.07
2019-02-05T19:57:33.678Z,5.10
2019-02-05T20:00:02.517Z,6.27
2019-02-05T20:02:30.617Z,6.70
2019-02-05T20:04:58.847Z,7.63
2019-02-05T20:07:27.025Z,6.37
2019-02-05T20:09:55.133Z,6.07
2019-02-05T20:12:23.594Z,8.20
2019-02-05T20:14:52.134Z,7.07
2019-02-05T20:17:20.545Z,10.60
2019-02-05T20:19:48.641Z,15.80
2019-02-05T20:22:17.312Z,10.70
2019-02-05T20:24:45.641Z,7.73
2019-02-05T20:27:13.879Z,7.80
2019-02-05T20:29:42.035Z,8.40
2019-02-05T20:32:11.262Z,5.23
2019-02-05T20:34:40.099Z,6.17
2019-02-05T20:37:08.351Z,5.67
2019-02-05T20:39:37.003Z,8.10
2019-02-05T20:42:05.385Z,21.23
2019-02-05T20:44:33.589Z,9.20
2019-02-05T20:47:01.923Z,7.20
2019-02-05T20:49:30.724Z,5.63
2019-02-05T20:51:58.819Z,7.70
2019-02-05T20:54:27.094Z,5.87
2019-02-05T20:56:55.348Z,6.53
2019-02-05T20:59:23.613Z,6.57
2019-02-05T21:01:51.712Z,5.93
2019-02-05T21:04:19.886Z,9.03
2019-02-05T21:06:48.502Z,7.63
2019-02-05T21:09:21.316Z,6.87
2019-02-05T21:11:49.746Z,9.50
2019-02-05T21:14:18.312Z,8.00
2019-02-05T21:16:46.691Z,6.37
2019-02-05T21:19:14.917Z,8.17
2019-02-05T21:21:43.009Z,10.70
2019-02-05T21:24:11.489Z,12.20
2019-02-05T21:26:39.742Z,9.50
2019-02-05T21:29:08.105Z,7.43
2019-02-05T21:31:36.317Z,7.93
2019-02-05T21:34:15.150Z,8.77
2019-02-05T21:36:34.520Z,12.53
2019-02-05T21:39:04.922Z,10.87
2019-02-05T21:41:34.685Z,15.77
2019-02-05T21:44:05.067Z,15.87
2019-02-05T21:46:33.215Z,12.50
2019-02-05T21:49:01.413Z,22.77
2019-02-05T21:51:40.323Z,59.70
2019-02-05T21:53:59.593Z,69.20
2019-02-05T21:56:28.967Z,121.97
2019-02-05T21:58:57.543Z,65.97
2019-02-05T22:01:25.906Z,31.20
2019-02-05T22:03:54.102Z,18.13
2019-02-05T22:06:22.535Z,18.03
2019-02-05T22:08:50.773Z,15.97
2019-02-05T22:11:18.938Z,16.87
2019-02-05T22:13:47.401Z,13.47
2019-02-05T22:16:16.069Z,13.67
2019-02-05T22:18:44.217Z,13.23
2019-02-05T22:21:12.726Z,11.57
2019-02-05T22:23:40.981Z,11.63
2019-02-05T22:26:09.247Z,11.67
2019-02-05T22:28:37.550Z,10.10
2019-02-05T22:31:05.764Z,11.53
2019-02-05T22:33:34.024Z,9.93
2019-02-05T22:36:02.739Z,13.00
2019-02-05T22:38:30.963Z,10.60
2019-02-05T22:40:59.086Z,11.40
2019-02-05T22:43:27.590Z,10.27
2019-02-05T22:45:55.732Z,9.73
2019-02-05T22:48:24.231Z,10.57
2019-02-05T22:50:52.393Z,10.57
2019-02-05T22:53:20.593Z,9.73
2019-02-05T22:55:48.799Z,10.90
2019-02-05T22:58:17.450Z,9.10
2019-02-05T23:01:01.513Z,9.27
2019-02-05T23:03:33.490Z,9.87
2019-02-05T23:06:43.300Z,9.20
2019-02-05T23:09:17.242Z,7.20
2019-02-05T23:12:13.068Z,10.77
2019-02-05T23:14:42.062Z,8.43
2019-02-05T23:17:10.531Z,12.90
2019-02-05T23:19:38.951Z,12.73
2019-02-05T23:22:07.317Z,11.27
2019-02-05T23:24:35.502Z,10.37
2019-02-05T23:27:04.440Z,10.03
2019-02-05T23:29:32.755Z,7.93
2019-02-05T23:32:01.551Z,10.37
2019-02-05T23:34:29.694Z,10.23
2019-02-05T23:36:58.234Z,11.97
2019-02-05T23:39:26.461Z,10.73
2019-02-05T23:41:54.754Z,10.37
2019-02-05T23:44:23.038Z,22.57
2019-02-05T23:46:51.393Z,16.93
2019-02-05T23:49:19.582Z,55.83
2019-02-05T23:51:48.039Z,48.80
2019-02-05T23:54:16.389Z,77.57
2019-02-05T23:56:44.598Z,35.70
2019-02-05T23:59:12.738Z,26.30
